sensor_id;sensor_type;location;lat;lon;timestamp;P1;durP1;ratioP1;P2;durP2;ratioP2
16524;SDS011;8375;33.594;-117.718;2023-04-15T00:02:14;8.33;;;2.87;;
16524;SDS011;8375;33.594;-117.718;2023-04-15T00:04:44;8.90;;;3.37;;
16524;SDS011;8375;33.594;-117.718;2023-04-15T00:07:13;7.43;;;2.80;;
16524;SDS011;8375;33.594;-117.718;2023-04-15T00:09:42;14.30;;;3.40;;
16524;SDS011;8375;33.594;-117.718;2023-04-15T00:12:11;9.53;;;3.00;;
16524;SDS011;8375;33.594;-117.718;2023-04-15T00:14:40;12.80;;;3.00;;
16524;SDS011;8375;33.594;-117.718;2023-04-15T00:17:11;11.67;;;3.13;;
16524;SDS011;8375;33.594;-117.718;2023-04-15T00:19:40;9.77;;;3.10;;
16524;SDS011;8375;33.594;-117.718;2023-04-15T00:22:09;9.90;;;3.70;;
16524;SDS011;8375;33.594;-117.718;2023-04-15T00:24:38;11.90;;;3.60;;
16524;SDS011;8375;33.594;-117.718;2023-04-15T00:27:07;13.53;;;3.33;;
16524;SDS011;8375;33.594;-117.718;2023-04-15T00:29:36;11.43;;;3.10;;
16524;SDS011;8375;33.594;-117.718;2023-04-15T00:32:05;11.90;;;3.60;;
16524;SDS011;8375;33.594;-117.718;2023-04-15T00:34:35;12.70;;;3.27;;
16524;SDS011;8375;33.594;-117.718;2023-04-15T00:37:04;14.93;;;3.53;;
16524;SDS011;8375;33.594;-117.718;2023-04-15T00:39:32;16.43;;;3.60;;
16524;SDS011;8375;33.594;-117.718;2023-04-15T00:42:01;7.90;;;2.90;;
16524;SDS011;8375;33.594;-117.718;2023-04-15T00:44:30;11.73;;;4.17;;
16524;SDS011;8375;33.594;-117.718;2023-04-15T00:46:59;10.07;;;3.70;;
16524;SDS011;8375;33.594;-117.718;2023-04-15T00:49:28;14.20;;;3.63;;
16524;SDS011;8375;33.594;-117.718;2023-04-15T00:51:59;10.77;;;3.33;;
16524;SDS011;8375;33.594;-117.718;2023-04-15T00:54:28;8.67;;;3.13;;
16524;SDS011;8375;33.594;-117.718;2023-04-15T00:56:56;13.53;;;3.40;;
16524;SDS011;8375;33.594;-117.718;2023-04-15T00:59:25;9.80;;;3.27;;
16524;SDS011;8375;33.594;-117.718;2023-04-15T01:01:55;8.70;;;3.03;;
16524;SDS011;8375;33.594;-117.718;2023-04-15T01:04:23;11.57;;;3.30;;
16524;SDS011;8375;33.594;-117.718;2023-04-15T01:06:52;10.33;;;3.60;;
16524;SDS011;8375;33.594;-117.718;2023-04-15T01:09:22;9.90;;;2.90;;
16524;SDS011;8375;33.594;-117.718;2023-04-15T01:11:51;8.03;;;3.10;;
16524;SDS011;8375;33.594;-117.718;2023-04-15T01:14:20;10.07;;;3.10;;
16524;SDS011;8375;33.594;-117.718;2023-04-15T01:16:49;10.00;;;2.60;;
16524;SDS011;8375;33.594;-117.718;2023-04-15T01:19:19;10.77;;;3.23;;
16524;SDS011;8375;33.594;-117.718;2023-04-15T01:21:47;11.67;;;3.20;;
16524;SDS011;8375;33.594;-117.718;2023-04-15T01:24:17;9.23;;;3.20;;
16524;SDS011;8375;33.594;-117.718;2023-04-15T01:26:47;13.97;;;3.43;;
16524;SDS011;8375;33.594;-117.718;2023-04-15T01:29:16;11.00;;;3.20;;
16524;SDS011;8375;33.594;-117.718;2023-04-15T01:31:49;8.03;;;2.97;;
16524;SDS011;8375;33.594;-117.718;2023-04-15T01:34:18;8.47;;;2.60;;
16524;SDS011;8375;33.594;-117.718;2023-04-15T01:36:47;11.17;;;3.33;;
16524;SDS011;8375;33.594;-117.718;2023-04-15T01:39:16;12.17;;;3.47;;
16524;SDS011;8375;33.594;-117.718;2023-04-15T01:41:44;9.93;;;3.30;;
16524;SDS011;8375;33.594;-117.718;2023-04-15T01:44:14;6.33;;;2.87;;
16524;SDS011;8375;33.594;-117.718;2023-04-15T01:46:43;9.77;;;3.63;;
16524;SDS011;8375;33.594;-117.718;2023-04-15T01:49:12;11.27;;;3.60;;
16524;SDS011;8375;33.594;-117.718;2023-04-15T01:51:41;12.17;;;2.93;;
16524;SDS011;8375;33.594;-117.718;2023-04-15T01:54:10;10.73;;;3.10;;
16524;SDS011;8375;33.594;-117.718;2023-04-15T01:56:38;9.63;;;3.40;;
16524;SDS011;8375;33.594;-117.718;2023-04-15T01:59:07;10.80;;;3.30;;
16524;SDS011;8375;33.594;-117.718;2023-04-15T02:01:37;14.03;;;3.00;;
16524;SDS011;8375;33.594;-117.718;2023-04-15T02:04:06;11.40;;;3.60;;
16524;SDS011;8375;33.594;-117.718;2023-04-15T02:06:41;10.70;;;2.97;;
16524;SDS011;8375;33.594;-117.718;2023-04-15T02:09:10;12.10;;;3.83;;
16524;SDS011;8375;33.594;-117.718;2023-04-15T02:11:39;10.73;;;3.40;;
16524;SDS011;8375;33.594;-117.718;2023-04-15T02:14:08;13.00;;;3.63;;
16524;SDS011;8375;33.594;-117.718;2023-04-15T02:16:38;10.93;;;3.20;;
16524;SDS011;8375;33.594;-117.718;2023-04-15T02:19:07;11.77;;;3.30;;
16524;SDS011;8375;33.594;-117.718;2023-04-15T02:21:35;11.37;;;3.33;;
16524;SDS011;8375;33.594;-117.718;2023-04-15T02:24:04;11.40;;;3.53;;
16524;SDS011;8375;33.594;-117.718;2023-04-15T02:26:33;13.73;;;3.73;;
16524;SDS011;8375;33.594;-117.718;2023-04-15T02:29:02;15.40;;;3.60;;
16524;SDS011;8375;33.594;-117.718;2023-04-15T02:31:30;15.07;;;3.13;;
16524;SDS011;8375;33.594;-117.718;2023-04-15T02:34:06;16.43;;;3.43;;
16524;SDS011;8375;33.594;-117.718;2023-04-15T02:36:35;13.63;;;3.10;;
16524;SDS011;8375;33.594;-117.718;2023-04-15T02:39:05;10.07;;;3.50;;
16524;SDS011;8375;33.594;-117.718;2023-04-15T02:41:34;9.87;;;3.00;;
16524;SDS011;8375;33.594;-117.718;2023-04-15T02:44:04;11.77;;;3.40;;
16524;SDS011;8375;33.594;-117.718;2023-04-15T02:46:34;10.40;;;3.30;;
16524;SDS011;8375;33.594;-117.718;2023-04-15T02:49:02;13.97;;;3.33;;
16524;SDS011;8375;33.594;-117.718;2023-04-15T02:51:33;15.63;;;3.20;;
16524;SDS011;8375;33.594;-117.718;2023-04-15T02:54:02;9.53;;;3.67;;
16524;SDS011;8375;33.594;-117.718;2023-04-15T02:56:30;14.13;;;3.67;;
16524;SDS011;8375;33.594;-117.718;2023-04-15T02:58:59;12.50;;;3.83;;
16524;SDS011;8375;33.594;-117.718;2023-04-15T03:01:27;11.97;;;3.60;;
16524;SDS011;8375;33.594;-117.718;2023-04-15T03:03:56;11.97;;;3.30;;
16524;SDS011;8375;33.594;-117.718;2023-04-15T03:06:25;10.27;;;3.20;;
16524;SDS011;8375;33.594;-117.718;2023-04-15T03:08:55;12.07;;;3.43;;
16524;SDS011;8375;33.594;-117.718;2023-04-15T03:11:24;11.87;;;3.60;;
16524;SDS011;8375;33.594;-117.718;2023-04-15T03:13:53;9.30;;;3.40;;
16524;SDS011;8375;33.594;-117.718;2023-04-15T03:16:22;9.43;;;3.47;;
16524;SDS011;8375;33.594;-117.718;2023-04-15T03:18:51;8.97;;;3.20;;
16524;SDS011;8375;33.594;-117.718;2023-04-15T03:21:19;12.23;;;3.27;;
16524;SDS011;8375;33.594;-117.718;2023-04-15T03:23:48;11.77;;;3.20;;
16524;SDS011;8375;33.594;-117.718;2023-04-15T03:26:25;11.17;;;3.73;;
16524;SDS011;8375;33.594;-117.718;2023-04-15T03:28:54;9.53;;;3.10;;
16524;SDS011;8375;33.594;-117.718;2023-04-15T03:31:24;15.07;;;3.67;;
16524;SDS011;8375;33.594;-117.718;2023-04-15T03:33:52;9.67;;;3.07;;
16524;SDS011;8375;33.594;-117.718;2023-04-15T03:36:21;11.23;;;3.20;;
16524;SDS011;8375;33.594;-117.718;2023-04-15T03:38:50;10.30;;;3.30;;
16524;SDS011;8375;33.594;-117.718;2023-04-15T03:41:18;9.07;;;3.23;;
16524;SDS011;8375;33.594;-117.718;2023-04-15T03:43:48;12.00;;;3.10;;
16524;SDS011;8375;33.594;-117.718;2023-04-15T03:46:18;10.17;;;3.43;;
16524;SDS011;8375;33.594;-117.718;2023-04-15T03:48:46;10.37;;;3.70;;
16524;SDS011;8375;33.594;-117.718;2023-04-15T03:51:15;11.93;;;3.57;;
16524;SDS011;8375;33.594;-117.718;2023-04-15T03:53:44;20.03;;;3.73;;
16524;SDS011;8375;33.594;-117.718;2023-04-15T03:56:12;11.07;;;3.13;;
16524;SDS011;8375;33.594;-117.718;2023-04-15T03:58:41;13.10;;;3.23;;
16524;SDS011;8375;33.594;-117.718;2023-04-15T04:01:11;8.83;;;3.10;;
16524;SDS011;8375;33.594;-117.718;2023-04-15T04:03:40;13.20;;;3.20;;
16524;SDS011;8375;33.594;-117.718;2023-04-15T04:06:08;10.70;;;3.43;;
16524;SDS011;8375;33.594;-117.718;2023-04-15T04:08:37;16.57;;;3.67;;
16524;SDS011;8375;33.594;-117.718;2023-04-15T04:11:06;11.50;;;3.30;;
16524;SDS011;8375;33.594;-117.718;2023-04-15T04:13:35;11.10;;;3.40;;
16524;SDS011;8375;33.594;-117.718;2023-04-15T04:16:03;11.03;;;3.70;;
16524;SDS011;8375;33.594;-117.718;2023-04-15T04:18:34;11.60;;;4.40;;
16524;SDS011;8375;33.594;-117.718;2023-04-15T04:21:03;16.90;;;4.23;;
16524;SDS011;8375;33.594;-117.718;2023-04-15T04:23:32;13.37;;;3.97;;
16524;SDS011;8375;33.594;-117.718;2023-04-15T04:26:01;13.83;;;4.30;;
16524;SDS011;8375;33.594;-117.718;2023-04-15T04:28:29;16.27;;;4.00;;
16524;SDS011;8375;33.594;-117.718;2023-04-15T04:30:58;15.27;;;3.80;;
16524;SDS011;8375;33.594;-117.718;2023-04-15T04:33:27;13.13;;;3.80;;
16524;SDS011;8375;33.594;-117.718;2023-04-15T04:35:58;15.43;;;4.23;;
16524;SDS011;8375;33.594;-117.718;2023-04-15T04:38:27;14.87;;;3.57;;
16524;SDS011;8375;33.594;-117.718;2023-04-15T04:40:55;10.90;;;3.53;;
16524;SDS011;8375;33.594;-117.718;2023-04-15T04:43:24;12.33;;;4.13;;
16524;SDS011;8375;33.594;-117.718;2023-04-15T04:45:53;14.53;;;3.63;;
16524;SDS011;8375;33.594;-117.718;2023-04-15T04:48:22;13.43;;;3.80;;
16524;SDS011;8375;33.594;-117.718;2023-04-15T04:50:51;15.63;;;4.00;;
16524;SDS011;8375;33.594;-117.718;2023-04-15T04:53:22;12.33;;;3.60;;
16524;SDS011;8375;33.594;-117.718;2023-04-15T04:55:51;13.07;;;3.87;;
16524;SDS011;8375;33.594;-117.718;2023-04-15T04:58:19;10.43;;;3.80;;
16524;SDS011;8375;33.594;-117.718;2023-04-15T05:00:48;12.07;;;3.83;;
16524;SDS011;8375;33.594;-117.718;2023-04-15T05:03:17;12.97;;;4.40;;
16524;SDS011;8375;33.594;-117.718;2023-04-15T05:05:45;13.60;;;4.07;;
16524;SDS011;8375;33.594;-117.718;2023-04-15T05:08:14;9.93;;;3.60;;
16524;SDS011;8375;33.594;-117.718;2023-04-15T05:10:44;17.23;;;4.10;;
16524;SDS011;8375;33.594;-117.718;2023-04-15T05:13:13;16.57;;;3.30;;
16524;SDS011;8375;33.594;-117.718;2023-04-15T05:15:42;14.80;;;3.30;;
16524;SDS011;8375;33.594;-117.718;2023-04-15T05:18:10;10.67;;;3.47;;
16524;SDS011;8375;33.594;-117.718;2023-04-15T05:20:39;13.33;;;3.90;;
16524;SDS011;8375;33.594;-117.718;2023-04-15T05:23:08;9.97;;;3.97;;
16524;SDS011;8375;33.594;-117.718;2023-04-15T05:25:36;10.73;;;3.63;;
16524;SDS011;8375;33.594;-117.718;2023-04-15T05:28:07;9.80;;;3.23;;
16524;SDS011;8375;33.594;-117.718;2023-04-15T05:30:35;14.63;;;4.33;;
16524;SDS011;8375;33.594;-117.718;2023-04-15T05:33:04;12.80;;;4.03;;
16524;SDS011;8375;33.594;-117.718;2023-04-15T05:35:33;15.37;;;4.10;;
16524;SDS011;8375;33.594;-117.718;2023-04-15T05:38:02;14.37;;;3.93;;
16524;SDS011;8375;33.594;-117.718;2023-04-15T05:40:31;14.43;;;4.20;;
16524;SDS011;8375;33.594;-117.718;2023-04-15T05:42:59;13.53;;;4.40;;
16524;SDS011;8375;33.594;-117.718;2023-04-15T05:45:30;16.77;;;3.90;;
16524;SDS011;8375;33.594;-117.718;2023-04-15T05:47:58;13.60;;;3.93;;
16524;SDS011;8375;33.594;-117.718;2023-04-15T05:50:27;11.80;;;4.20;;
16524;SDS011;8375;33.594;-117.718;2023-04-15T05:52:56;12.17;;;3.50;;
16524;SDS011;8375;33.594;-117.718;2023-04-15T05:55:24;10.20;;;3.33;;
16524;SDS011;8375;33.594;-117.718;2023-04-15T05:57:53;19.33;;;4.53;;
16524;SDS011;8375;33.594;-117.718;2023-04-15T06:00:22;11.80;;;3.93;;
16524;SDS011;8375;33.594;-117.718;2023-04-15T06:02:52;15.43;;;4.10;;
16524;SDS011;8375;33.594;-117.718;2023-04-15T06:05:21;15.27;;;3.90;;
16524;SDS011;8375;33.594;-117.718;2023-04-15T06:07:49;13.07;;;4.27;;
16524;SDS011;8375;33.594;-117.718;2023-04-15T06:10:18;11.87;;;4.00;;
16524;SDS011;8375;33.594;-117.718;2023-04-15T06:12:47;12.13;;;4.60;;
16524;SDS011;8375;33.594;-117.718;2023-04-15T06:15:15;11.60;;;3.73;;
16524;SDS011;8375;33.594;-117.718;2023-04-15T06:17:44;12.27;;;4.17;;
16524;SDS011;8375;33.594;-117.718;2023-04-15T06:20:15;14.07;;;4.17;;
16524;SDS011;8375;33.594;-117.718;2023-04-15T06:22:43;12.67;;;4.27;;
16524;SDS011;8375;33.594;-117.718;2023-04-15T06:25:12;13.20;;;4.13;;
16524;SDS011;8375;33.594;-117.718;2023-04-15T06:27:41;15.83;;;4.47;;
16524;SDS011;8375;33.594;-117.718;2023-04-15T06:30:10;14.70;;;4.13;;
16524;SDS011;8375;33.594;-117.718;2023-04-15T06:32:39;10.30;;;3.90;;
16524;SDS011;8375;33.594;-117.718;2023-04-15T06:35:08;14.63;;;4.27;;
16524;SDS011;8375;33.594;-117.718;2023-04-15T06:37:38;12.37;;;4.63;;
16524;SDS011;8375;33.594;-117.718;2023-04-15T06:40:07;13.70;;;4.10;;
16524;SDS011;8375;33.594;-117.718;2023-04-15T06:42:37;10.30;;;4.33;;
16524;SDS011;8375;33.594;-117.718;2023-04-15T06:45:06;14.57;;;4.23;;
16524;SDS011;8375;33.594;-117.718;2023-04-15T06:47:36;14.67;;;4.37;;
16524;SDS011;8375;33.594;-117.718;2023-04-15T06:50:05;11.93;;;4.03;;
16524;SDS011;8375;33.594;-117.718;2023-04-15T06:52:35;11.90;;;4.27;;
16524;SDS011;8375;33.594;-117.718;2023-04-15T06:55:06;11.00;;;4.50;;
16524;SDS011;8375;33.594;-117.718;2023-04-15T06:57:35;12.43;;;4.47;;
16524;SDS011;8375;33.594;-117.718;2023-04-15T07:00:04;13.63;;;4.33;;
16524;SDS011;8375;33.594;-117.718;2023-04-15T07:02:35;13.03;;;4.00;;
16524;SDS011;8375;33.594;-117.718;2023-04-15T07:05:05;11.90;;;3.47;;
16524;SDS011;8375;33.594;-117.718;2023-04-15T07:07:34;16.73;;;4.80;;
16524;SDS011;8375;33.594;-117.718;2023-04-15T07:10:03;12.73;;;4.17;;
16524;SDS011;8375;33.594;-117.718;2023-04-15T07:12:34;12.83;;;3.90;;
16524;SDS011;8375;33.594;-117.718;2023-04-15T07:15:03;11.03;;;4.17;;
16524;SDS011;8375;33.594;-117.718;2023-04-15T07:17:33;13.03;;;4.00;;
16524;SDS011;8375;33.594;-117.718;2023-04-15T07:20:01;15.93;;;4.60;;
16524;SDS011;8375;33.594;-117.718;2023-04-15T07:22:30;14.53;;;4.10;;
16524;SDS011;8375;33.594;-117.718;2023-04-15T07:24:59;10.03;;;3.43;;
16524;SDS011;8375;33.594;-117.718;2023-04-15T07:27:29;15.20;;;4.33;;
16524;SDS011;8375;33.594;-117.718;2023-04-15T07:29:58;14.67;;;4.47;;
16524;SDS011;8375;33.594;-117.718;2023-04-15T07:32:27;19.70;;;5.10;;
16524;SDS011;8375;33.594;-117.718;2023-04-15T07:34:55;12.07;;;4.10;;
16524;SDS011;8375;33.594;-117.718;2023-04-15T07:37:24;18.70;;;5.30;;
16524;SDS011;8375;33.594;-117.718;2023-04-15T07:39:53;14.03;;;4.63;;
16524;SDS011;8375;33.594;-117.718;2023-04-15T07:42:22;20.10;;;4.63;;
16524;SDS011;8375;33.594;-117.718;2023-04-15T07:44:52;15.07;;;4.67;;
16524;SDS011;8375;33.594;-117.718;2023-04-15T07:47:21;11.47;;;5.30;;
16524;SDS011;8375;33.594;-117.718;2023-04-15T07:49:49;13.33;;;4.67;;
16524;SDS011;8375;33.594;-117.718;2023-04-15T07:52:18;13.30;;;4.60;;
16524;SDS011;8375;33.594;-117.718;2023-04-15T07:54:47;19.90;;;5.13;;
16524;SDS011;8375;33.594;-117.718;2023-04-15T07:57:15;13.53;;;5.37;;
16524;SDS011;8375;33.594;-117.718;2023-04-15T07:59:44;20.13;;;5.90;;
16524;SDS011;8375;33.594;-117.718;2023-04-15T08:02:14;15.93;;;4.77;;
16524;SDS011;8375;33.594;-117.718;2023-04-15T08:04:43;22.70;;;5.83;;
16524;SDS011;8375;33.594;-117.718;2023-04-15T08:07:12;18.67;;;5.27;;
16524;SDS011;8375;33.594;-117.718;2023-04-15T08:09:41;11.70;;;4.83;;
16524;SDS011;8375;33.594;-117.718;2023-04-15T08:12:09;15.00;;;5.13;;
16524;SDS011;8375;33.594;-117.718;2023-04-15T08:14:39;17.53;;;5.03;;
16524;SDS011;8375;33.594;-117.718;2023-04-15T08:17:08;13.70;;;4.50;;
16524;SDS011;8375;33.594;-117.718;2023-04-15T08:19:38;12.80;;;5.03;;
16524;SDS011;8375;33.594;-117.718;2023-04-15T08:22:07;11.77;;;4.87;;
16524;SDS011;8375;33.594;-117.718;2023-04-15T08:24:36;14.30;;;4.57;;
16524;SDS011;8375;33.594;-117.718;2023-04-15T08:27:05;16.63;;;5.30;;
16524;SDS011;8375;33.594;-117.718;2023-04-15T08:29:33;13.80;;;5.30;;
16524;SDS011;8375;33.594;-117.718;2023-04-15T08:32:02;12.53;;;4.77;;
16524;SDS011;8375;33.594;-117.718;2023-04-15T08:34:31;13.67;;;4.57;;
16524;SDS011;8375;33.594;-117.718;2023-04-15T08:37:01;13.63;;;4.43;;
16524;SDS011;8375;33.594;-117.718;2023-04-15T08:39:31;20.93;;;5.10;;
16524;SDS011;8375;33.594;-117.718;2023-04-15T08:42:00;17.93;;;5.00;;
16524;SDS011;8375;33.594;-117.718;2023-04-15T08:44:32;11.87;;;5.00;;
16524;SDS011;8375;33.594;-117.718;2023-04-15T08:47:02;15.80;;;4.80;;
16524;SDS011;8375;33.594;-117.718;2023-04-15T08:49:34;18.13;;;5.27;;
16524;SDS011;8375;33.594;-117.718;2023-04-15T08:52:07;12.77;;;4.97;;
16524;SDS011;8375;33.594;-117.718;2023-04-15T08:54:36;14.13;;;4.70;;
16524;SDS011;8375;33.594;-117.718;2023-04-15T08:57:06;15.07;;;5.63;;
16524;SDS011;8375;33.594;-117.718;2023-04-15T08:59:35;12.40;;;4.77;;
16524;SDS011;8375;33.594;-117.718;2023-04-15T09:02:04;15.57;;;5.13;;
16524;SDS011;8375;33.594;-117.718;2023-04-15T09:04:33;14.43;;;4.70;;
16524;SDS011;8375;33.594;-117.718;2023-04-15T09:07:02;16.13;;;4.70;;
16524;SDS011;8375;33.594;-117.718;2023-04-15T09:09:32;12.83;;;4.33;;
16524;SDS011;8375;33.594;-117.718;2023-04-15T09:12:02;12.10;;;4.60;;
16524;SDS011;8375;33.594;-117.718;2023-04-15T09:14:30;16.30;;;4.97;;
16524;SDS011;8375;33.594;-117.718;2023-04-15T09:17:00;10.73;;;4.77;;
16524;SDS011;8375;33.594;-117.718;2023-04-15T09:19:29;11.47;;;4.90;;
16524;SDS011;8375;33.594;-117.718;2023-04-15T09:21:59;15.50;;;4.83;;
16524;SDS011;8375;33.594;-117.718;2023-04-15T09:24:37;11.87;;;4.67;;
16524;SDS011;8375;33.594;-117.718;2023-04-15T09:27:07;14.13;;;4.63;;
16524;SDS011;8375;33.594;-117.718;2023-04-15T09:29:36;14.60;;;5.17;;
16524;SDS011;8375;33.594;-117.718;2023-04-15T09:32:11;13.13;;;4.57;;
16524;SDS011;8375;33.594;-117.718;2023-04-15T09:34:40;12.97;;;5.40;;
16524;SDS011;8375;33.594;-117.718;2023-04-15T09:37:09;14.23;;;5.33;;
16524;SDS011;8375;33.594;-117.718;2023-04-15T09:39:46;10.83;;;5.00;;
16524;SDS011;8375;33.594;-117.718;2023-04-15T09:42:16;13.43;;;5.30;;
16524;SDS011;8375;33.594;-117.718;2023-04-15T09:44:49;13.50;;;5.50;;
16524;SDS011;8375;33.594;-117.718;2023-04-15T09:50:04;13.33;;;4.97;;
16524;SDS011;8375;33.594;-117.718;2023-04-15T09:52:39;12.47;;;5.10;;
16524;SDS011;8375;33.594;-117.718;2023-04-15T09:55:11;13.70;;;5.13;;
16524;SDS011;8375;33.594;-117.718;2023-04-15T09:57:40;12.73;;;4.90;;
16524;SDS011;8375;33.594;-117.718;2023-04-15T10:00:09;18.43;;;5.77;;
16524;SDS011;8375;33.594;-117.718;2023-04-15T10:02:38;15.30;;;5.37;;
16524;SDS011;8375;33.594;-117.718;2023-04-15T10:05:09;16.77;;;5.73;;
16524;SDS011;8375;33.594;-117.718;2023-04-15T10:07:40;18.97;;;5.73;;
16524;SDS011;8375;33.594;-117.718;2023-04-15T10:10:12;13.53;;;5.53;;
16524;SDS011;8375;33.594;-117.718;2023-04-15T10:12:41;15.47;;;5.47;;
16524;SDS011;8375;33.594;-117.718;2023-04-15T10:15:12;11.50;;;5.93;;
16524;SDS011;8375;33.594;-117.718;2023-04-15T10:17:43;16.37;;;5.47;;
16524;SDS011;8375;33.594;-117.718;2023-04-15T10:20:13;12.30;;;5.30;;
16524;SDS011;8375;33.594;-117.718;2023-04-15T10:22:44;15.90;;;5.80;;
16524;SDS011;8375;33.594;-117.718;2023-04-15T10:25:15;17.73;;;5.93;;
16524;SDS011;8375;33.594;-117.718;2023-04-15T10:27:44;17.37;;;5.47;;
16524;SDS011;8375;33.594;-117.718;2023-04-15T10:30:16;14.43;;;5.87;;
16524;SDS011;8375;33.594;-117.718;2023-04-15T10:32:46;11.60;;;5.43;;
16524;SDS011;8375;33.594;-117.718;2023-04-15T10:35:15;13.97;;;5.20;;
16524;SDS011;8375;33.594;-117.718;2023-04-15T10:37:45;14.93;;;5.47;;
16524;SDS011;8375;33.594;-117.718;2023-04-15T10:40:25;17.10;;;5.67;;
16524;SDS011;8375;33.594;-117.718;2023-04-15T10:42:56;18.50;;;5.80;;
16524;SDS011;8375;33.594;-117.718;2023-04-15T10:45:26;19.80;;;6.30;;
16524;SDS011;8375;33.594;-117.718;2023-04-15T10:48:00;15.30;;;5.93;;
16524;SDS011;8375;33.594;-117.718;2023-04-15T10:50:30;15.40;;;5.97;;
16524;SDS011;8375;33.594;-117.718;2023-04-15T10:53:00;18.00;;;6.33;;
16524;SDS011;8375;33.594;-117.718;2023-04-15T10:55:32;18.83;;;6.00;;
16524;SDS011;8375;33.594;-117.718;2023-04-15T10:58:01;13.60;;;5.77;;
16524;SDS011;8375;33.594;-117.718;2023-04-15T11:00:31;17.13;;;6.07;;
16524;SDS011;8375;33.594;-117.718;2023-04-15T11:03:04;14.17;;;5.43;;
16524;SDS011;8375;33.594;-117.718;2023-04-15T11:05:49;16.27;;;6.87;;
16524;SDS011;8375;33.594;-117.718;2023-04-15T11:08:19;16.73;;;6.00;;
16524;SDS011;8375;33.594;-117.718;2023-04-15T11:11:09;17.47;;;6.13;;
16524;SDS011;8375;33.594;-117.718;2023-04-15T11:13:46;19.73;;;6.20;;
16524;SDS011;8375;33.594;-117.718;2023-04-15T11:16:15;19.50;;;6.10;;
16524;SDS011;8375;33.594;-117.718;2023-04-15T11:18:52;15.40;;;6.17;;
16524;SDS011;8375;33.594;-117.718;2023-04-15T11:21:23;15.37;;;5.90;;
16524;SDS011;8375;33.594;-117.718;2023-04-15T11:23:52;16.17;;;5.70;;
16524;SDS011;8375;33.594;-117.718;2023-04-15T11:26:24;14.77;;;5.87;;
16524;SDS011;8375;33.594;-117.718;2023-04-15T11:28:53;11.33;;;5.40;;
16524;SDS011;8375;33.594;-117.718;2023-04-15T11:31:22;16.27;;;5.97;;
16524;SDS011;8375;33.594;-117.718;2023-04-15T11:33:54;15.80;;;5.53;;
16524;SDS011;8375;33.594;-117.718;2023-04-15T11:36:24;14.70;;;5.13;;
16524;SDS011;8375;33.594;-117.718;2023-04-15T11:38:54;15.40;;;5.50;;
16524;SDS011;8375;33.594;-117.718;2023-04-15T11:41:26;9.40;;;5.47;;
16524;SDS011;8375;33.594;-117.718;2023-04-15T11:43:54;13.17;;;6.47;;
16524;SDS011;8375;33.594;-117.718;2023-04-15T11:46:27;11.93;;;5.90;;
16524;SDS011;8375;33.594;-117.718;2023-04-15T11:48:57;14.23;;;5.73;;
16524;SDS011;8375;33.594;-117.718;2023-04-15T11:51:26;15.00;;;5.77;;
16524;SDS011;8375;33.594;-117.718;2023-04-15T11:53:59;13.77;;;5.87;;
16524;SDS011;8375;33.594;-117.718;2023-04-15T11:56:30;12.07;;;5.70;;
16524;SDS011;8375;33.594;-117.718;2023-04-15T11:58:58;14.97;;;5.43;;
16524;SDS011;8375;33.594;-117.718;2023-04-15T12:01:31;14.13;;;5.70;;
16524;SDS011;8375;33.594;-117.718;2023-04-15T12:04:00;13.33;;;5.10;;
16524;SDS011;8375;33.594;-117.718;2023-04-15T12:06:31;14.03;;;6.03;;
16524;SDS011;8375;33.594;-117.718;2023-04-15T12:09:07;15.00;;;6.43;;
16524;SDS011;8375;33.594;-117.718;2023-04-15T12:11:39;13.43;;;6.30;;
16524;SDS011;8375;33.594;-117.718;2023-04-15T12:14:11;13.03;;;5.60;;
16524;SDS011;8375;33.594;-117.718;2023-04-15T12:16:44;13.90;;;5.33;;
16524;SDS011;8375;33.594;-117.718;2023-04-15T12:19:15;16.63;;;6.23;;
16524;SDS011;8375;33.594;-117.718;2023-04-15T12:21:46;11.93;;;5.63;;
16524;SDS011;8375;33.594;-117.718;2023-04-15T12:24:18;12.90;;;5.93;;
16524;SDS011;8375;33.594;-117.718;2023-04-15T12:26:51;15.30;;;6.43;;
16524;SDS011;8375;33.594;-117.718;2023-04-15T12:29:24;16.93;;;7.00;;
16524;SDS011;8375;33.594;-117.718;2023-04-15T12:31:54;16.23;;;6.20;;
16524;SDS011;8375;33.594;-117.718;2023-04-15T12:34:27;16.83;;;6.17;;
16524;SDS011;8375;33.594;-117.718;2023-04-15T12:36:57;13.27;;;5.63;;
16524;SDS011;8375;33.594;-117.718;2023-04-15T12:39:27;13.60;;;6.23;;
16524;SDS011;8375;33.594;-117.718;2023-04-15T12:41:59;14.77;;;6.57;;
16524;SDS011;8375;33.594;-117.718;2023-04-15T12:44:27;13.07;;;6.27;;
16524;SDS011;8375;33.594;-117.718;2023-04-15T12:46:56;14.57;;;5.50;;
16524;SDS011;8375;33.594;-117.718;2023-04-15T12:49:25;13.10;;;6.23;;
16524;SDS011;8375;33.594;-117.718;2023-04-15T12:51:55;16.23;;;5.60;;
16524;SDS011;8375;33.594;-117.718;2023-04-15T12:54:25;14.03;;;5.80;;
16524;SDS011;8375;33.594;-117.718;2023-04-15T12:56:54;12.13;;;5.43;;
16524;SDS011;8375;33.594;-117.718;2023-04-15T12:59:25;13.97;;;5.73;;
16524;SDS011;8375;33.594;-117.718;2023-04-15T13:01:55;15.10;;;6.03;;
16524;SDS011;8375;33.594;-117.718;2023-04-15T13:04:25;16.93;;;5.73;;
16524;SDS011;8375;33.594;-117.718;2023-04-15T13:06:55;13.83;;;5.90;;
16524;SDS011;8375;33.594;-117.718;2023-04-15T13:09:23;16.93;;;6.27;;
16524;SDS011;8375;33.594;-117.718;2023-04-15T13:11:52;14.67;;;5.73;;
16524;SDS011;8375;33.594;-117.718;2023-04-15T13:14:21;15.20;;;6.33;;
16524;SDS011;8375;33.594;-117.718;2023-04-15T13:16:51;15.47;;;6.00;;
16524;SDS011;8375;33.594;-117.718;2023-04-15T13:19:20;12.77;;;5.70;;
16524;SDS011;8375;33.594;-117.718;2023-04-15T13:21:48;15.07;;;5.90;;
16524;SDS011;8375;33.594;-117.718;2023-04-15T13:24:17;15.47;;;5.57;;
16524;SDS011;8375;33.594;-117.718;2023-04-15T13:26:46;17.40;;;6.17;;
16524;SDS011;8375;33.594;-117.718;2023-04-15T13:29:14;9.60;;;5.23;;
16524;SDS011;8375;33.594;-117.718;2023-04-15T13:31:43;16.43;;;5.80;;
16524;SDS011;8375;33.594;-117.718;2023-04-15T13:34:13;12.93;;;5.33;;
16524;SDS011;8375;33.594;-117.718;2023-04-15T13:36:42;14.20;;;5.57;;
16524;SDS011;8375;33.594;-117.718;2023-04-15T13:39:10;13.00;;;5.07;;
16524;SDS011;8375;33.594;-117.718;2023-04-15T13:41:39;14.27;;;6.23;;
16524;SDS011;8375;33.594;-117.718;2023-04-15T13:44:08;16.23;;;5.87;;
16524;SDS011;8375;33.594;-117.718;2023-04-15T13:46:36;13.83;;;6.20;;
16524;SDS011;8375;33.594;-117.718;2023-04-15T13:49:06;14.90;;;6.03;;
16524;SDS011;8375;33.594;-117.718;2023-04-15T13:51:37;11.17;;;5.60;;
16524;SDS011;8375;33.594;-117.718;2023-04-15T13:54:05;21.00;;;6.77;;
16524;SDS011;8375;33.594;-117.718;2023-04-15T13:56:34;15.13;;;6.23;;
16524;SDS011;8375;33.594;-117.718;2023-04-15T13:59:02;10.07;;;5.43;;
16524;SDS011;8375;33.594;-117.718;2023-04-15T14:01:33;18.70;;;6.60;;
16524;SDS011;8375;33.594;-117.718;2023-04-15T14:04:02;10.80;;;5.63;;
16524;SDS011;8375;33.594;-117.718;2023-04-15T14:06:30;12.23;;;5.67;;
16524;SDS011;8375;33.594;-117.718;2023-04-15T14:09:01;15.47;;;6.10;;
16524;SDS011;8375;33.594;-117.718;2023-04-15T14:11:30;11.63;;;5.50;;
16524;SDS011;8375;33.594;-117.718;2023-04-15T14:14:00;12.73;;;5.70;;
16524;SDS011;8375;33.594;-117.718;2023-04-15T14:16:28;10.97;;;4.90;;
16524;SDS011;8375;33.594;-117.718;2023-04-15T14:18:58;5.80;;;4.50;;
16524;SDS011;8375;33.594;-117.718;2023-04-15T14:21:28;11.03;;;4.37;;
16524;SDS011;8375;33.594;-117.718;2023-04-15T14:23:57;9.83;;;5.00;;
16524;SDS011;8375;33.594;-117.718;2023-04-15T14:26:27;13.43;;;4.83;;
16524;SDS011;8375;33.594;-117.718;2023-04-15T14:28:56;11.20;;;5.37;;